sensor_id;sensor_type;location;lat;lon;timestamp;P1;durP1;ratioP1;P2;durP2;ratioP2
56269;SDS011;42176;43.240;27.880;2023-05-15T00:01:46;7.10;;;5.22;;
56269;SDS011;42176;43.240;27.880;2023-05-15T00:04:11;5.97;;;4.53;;
56269;SDS011;42176;43.240;27.880;2023-05-15T00:06:37;8.80;;;5.38;;
56269;SDS011;42176;43.240;27.880;2023-05-15T00:09:02;8.98;;;4.85;;
56269;SDS011;42176;43.240;27.880;2023-05-15T00:11:28;6.63;;;4.45;;
56269;SDS011;42176;43.240;27.880;2023-05-15T00:13:53;9.25;;;5.40;;
56269;SDS011;42176;43.240;27.880;2023-05-15T00:16:19;6.57;;;5.40;;
56269;SDS011;42176;43.240;27.880;2023-05-15T00:18:45;6.65;;;5.20;;
56269;SDS011;42176;43.240;27.880;2023-05-15T00:21:10;6.72;;;4.78;;
56269;SDS011;42176;43.240;27.880;2023-05-15T00:23:36;8.65;;;5.13;;
56269;SDS011;42176;43.240;27.880;2023-05-15T00:26:01;9.98;;;5.20;;
56269;SDS011;42176;43.240;27.880;2023-05-15T00:28:27;7.90;;;4.80;;
56269;SDS011;42176;43.240;27.880;2023-05-15T00:30:52;7.55;;;5.30;;
56269;SDS011;42176;43.240;27.880;2023-05-15T00:33:18;5.00;;;3.38;;
56269;SDS011;42176;43.240;27.880;2023-05-15T00:35:43;6.88;;;4.50;;
56269;SDS011;42176;43.240;27.880;2023-05-15T00:38:10;9.32;;;6.13;;
56269;SDS011;42176;43.240;27.880;2023-05-15T00:40:35;13.63;;;6.10;;
56269;SDS011;42176;43.240;27.880;2023-05-15T00:43:02;3.58;;;2.72;;
56269;SDS011;42176;43.240;27.880;2023-05-15T00:45:28;6.20;;;3.72;;
56269;SDS011;42176;43.240;27.880;2023-05-15T00:47:54;11.02;;;4.78;;
56269;SDS011;42176;43.240;27.880;2023-05-15T00:50:22;6.88;;;5.57;;
56269;SDS011;42176;43.240;27.880;2023-05-15T00:52:48;5.25;;;3.65;;
56269;SDS011;42176;43.240;27.880;2023-05-15T00:55:13;6.40;;;4.57;;
56269;SDS011;42176;43.240;27.880;2023-05-15T00:57:39;7.53;;;5.13;;
56269;SDS011;42176;43.240;27.880;2023-05-15T01:00:07;6.18;;;5.20;;
56269;SDS011;42176;43.240;27.880;2023-05-15T01:02:37;8.80;;;5.75;;
56269;SDS011;42176;43.240;27.880;2023-05-15T01:05:02;7.03;;;5.50;;
56269;SDS011;42176;43.240;27.880;2023-05-15T01:07:29;7.85;;;4.45;;
56269;SDS011;42176;43.240;27.880;2023-05-15T01:09:59;7.30;;;5.72;;
56269;SDS011;42176;43.240;27.880;2023-05-15T01:12:27;10.40;;;4.97;;
56269;SDS011;42176;43.240;27.880;2023-05-15T01:14:55;9.68;;;5.13;;
56269;SDS011;42176;43.240;27.880;2023-05-15T01:17:20;6.78;;;4.70;;
56269;SDS011;42176;43.240;27.880;2023-05-15T01:19:46;3.90;;;3.47;;
56269;SDS011;42176;43.240;27.880;2023-05-15T01:23:17;5.30;;;4.00;;
56269;SDS011;42176;43.240;27.880;2023-05-15T01:27:57;5.95;;;4.10;;
56269;SDS011;42176;43.240;27.880;2023-05-15T01:30:28;5.53;;;3.53;;
56269;SDS011;42176;43.240;27.880;2023-05-15T01:39:00;7.57;;;3.47;;
56269;SDS011;42176;43.240;27.880;2023-05-15T01:44:24;7.55;;;5.13;;
56269;SDS011;42176;43.240;27.880;2023-05-15T01:46:54;5.38;;;4.20;;
56269;SDS011;42176;43.240;27.880;2023-05-15T01:49:23;5.18;;;3.55;;
56269;SDS011;42176;43.240;27.880;2023-05-15T01:52:01;6.60;;;4.38;;
56269;SDS011;42176;43.240;27.880;2023-05-15T01:54:30;5.90;;;3.75;;
56269;SDS011;42176;43.240;27.880;2023-05-15T01:56:58;5.53;;;4.28;;
56269;SDS011;42176;43.240;27.880;2023-05-15T01:59:24;8.20;;;4.63;;
56269;SDS011;42176;43.240;27.880;2023-05-15T02:01:52;8.32;;;5.30;;
56269;SDS011;42176;43.240;27.880;2023-05-15T02:04:19;6.85;;;4.85;;
56269;SDS011;42176;43.240;27.880;2023-05-15T02:06:46;6.43;;;5.30;;
56269;SDS011;42176;43.240;27.880;2023-05-15T02:09:14;7.95;;;5.60;;
56269;SDS011;42176;43.240;27.880;2023-05-15T02:11:40;8.52;;;5.57;;
56269;SDS011;42176;43.240;27.880;2023-05-15T02:14:06;7.20;;;5.20;;
56269;SDS011;42176;43.240;27.880;2023-05-15T02:16:33;11.27;;;5.88;;
56269;SDS011;42176;43.240;27.880;2023-05-15T02:18:59;8.27;;;5.00;;
56269;SDS011;42176;43.240;27.880;2023-05-15T02:21:24;10.77;;;5.82;;
56269;SDS011;42176;43.240;27.880;2023-05-15T02:23:50;7.68;;;5.13;;
56269;SDS011;42176;43.240;27.880;2023-05-15T02:29:33;7.25;;;5.22;;
56269;SDS011;42176;43.240;27.880;2023-05-15T02:37:40;9.93;;;5.72;;
56269;SDS011;42176;43.240;27.880;2023-05-15T02:40:12;7.82;;;4.55;;
56269;SDS011;42176;43.240;27.880;2023-05-15T02:42:39;5.53;;;3.88;;
56269;SDS011;42176;43.240;27.880;2023-05-15T02:45:06;5.00;;;3.85;;
56269;SDS011;42176;43.240;27.880;2023-05-15T02:47:33;6.93;;;4.30;;
56269;SDS011;42176;43.240;27.880;2023-05-15T02:50:01;5.55;;;4.05;;
56269;SDS011;42176;43.240;27.880;2023-05-15T02:52:27;8.75;;;4.45;;
56269;SDS011;42176;43.240;27.880;2023-05-15T02:54:52;8.13;;;4.55;;
56269;SDS011;42176;43.240;27.880;2023-05-15T02:57:17;6.68;;;4.10;;
56269;SDS011;42176;43.240;27.880;2023-05-15T02:59:43;5.00;;;3.60;;
56269;SDS011;42176;43.240;27.880;2023-05-15T03:02:09;5.93;;;4.00;;
56269;SDS011;42176;43.240;27.880;2023-05-15T03:04:34;5.60;;;4.20;;
56269;SDS011;42176;43.240;27.880;2023-05-15T03:07:00;6.47;;;4.30;;
56269;SDS011;42176;43.240;27.880;2023-05-15T03:09:25;8.82;;;4.20;;
56269;SDS011;42176;43.240;27.880;2023-05-15T03:11:51;4.65;;;4.03;;
56269;SDS011;42176;43.240;27.880;2023-05-15T03:14:16;4.80;;;3.25;;
56269;SDS011;42176;43.240;27.880;2023-05-15T03:16:42;5.65;;;4.05;;
56269;SDS011;42176;43.240;27.880;2023-05-15T03:19:07;5.18;;;3.95;;
56269;SDS011;42176;43.240;27.880;2023-05-15T03:21:32;5.75;;;3.70;;
56269;SDS011;42176;43.240;27.880;2023-05-15T03:23:59;9.15;;;4.72;;
56269;SDS011;42176;43.240;27.880;2023-05-15T03:26:25;9.48;;;4.05;;
56269;SDS011;42176;43.240;27.880;2023-05-15T03:28:51;6.32;;;3.70;;
56269;SDS011;42176;43.240;27.880;2023-05-15T03:31:16;7.63;;;4.20;;
56269;SDS011;42176;43.240;27.880;2023-05-15T03:33:42;5.90;;;3.70;;
56269;SDS011;42176;43.240;27.880;2023-05-15T03:36:09;9.65;;;3.83;;
56269;SDS011;42176;43.240;27.880;2023-05-15T03:38:35;4.40;;;3.95;;
56269;SDS011;42176;43.240;27.880;2023-05-15T03:41:00;5.55;;;4.00;;
56269;SDS011;42176;43.240;27.880;2023-05-15T03:43:26;7.07;;;4.07;;
56269;SDS011;42176;43.240;27.880;2023-05-15T03:45:52;5.45;;;3.97;;
56269;SDS011;42176;43.240;27.880;2023-05-15T03:48:17;6.18;;;3.72;;
56269;SDS011;42176;43.240;27.880;2023-05-15T03:50:43;5.97;;;3.65;;
56269;SDS011;42176;43.240;27.880;2023-05-15T03:53:09;4.32;;;3.55;;
56269;SDS011;42176;43.240;27.880;2023-05-15T03:55:34;4.75;;;3.38;;
56269;SDS011;42176;43.240;27.880;2023-05-15T03:58:00;5.95;;;3.70;;
56269;SDS011;42176;43.240;27.880;2023-05-15T04:02:54;4.38;;;3.97;;
56269;SDS011;42176;43.240;27.880;2023-05-15T04:05:19;7.55;;;3.90;;
56269;SDS011;42176;43.240;27.880;2023-05-15T04:07:45;6.07;;;3.60;;
56269;SDS011;42176;43.240;27.880;2023-05-15T04:10:11;6.28;;;3.55;;
56269;SDS011;42176;43.240;27.880;2023-05-15T04:12:36;6.30;;;3.70;;
56269;SDS011;42176;43.240;27.880;2023-05-15T04:17:48;6.53;;;3.50;;
56269;SDS011;42176;43.240;27.880;2023-05-15T04:20:16;4.40;;;3.80;;
56269;SDS011;42176;43.240;27.880;2023-05-15T04:22:42;5.70;;;3.63;;
56269;SDS011;42176;43.240;27.880;2023-05-15T04:25:09;4.72;;;3.60;;
56269;SDS011;42176;43.240;27.880;2023-05-15T04:27:35;4.53;;;3.67;;
56269;SDS011;42176;43.240;27.880;2023-05-15T04:30:04;9.88;;;3.65;;
56269;SDS011;42176;43.240;27.880;2023-05-15T04:32:31;6.32;;;3.83;;
56269;SDS011;42176;43.240;27.880;2023-05-15T04:34:58;6.88;;;3.70;;
56269;SDS011;42176;43.240;27.880;2023-05-15T04:37:24;9.43;;;3.65;;
56269;SDS011;42176;43.240;27.880;2023-05-15T04:39:50;6.50;;;3.95;;
56269;SDS011;42176;43.240;27.880;2023-05-15T04:42:15;8.07;;;4.13;;
56269;SDS011;42176;43.240;27.880;2023-05-15T04:44:41;6.72;;;3.60;;
56269;SDS011;42176;43.240;27.880;2023-05-15T04:47:06;9.40;;;3.50;;
56269;SDS011;42176;43.240;27.880;2023-05-15T04:49:32;6.25;;;3.75;;
56269;SDS011;42176;43.240;27.880;2023-05-15T04:51:57;10.85;;;4.15;;
56269;SDS011;42176;43.240;27.880;2023-05-15T04:54:23;5.50;;;3.70;;
56269;SDS011;42176;43.240;27.880;2023-05-15T04:56:48;3.90;;;2.97;;
56269;SDS011;42176;43.240;27.880;2023-05-15T04:59:13;5.82;;;3.00;;
56269;SDS011;42176;43.240;27.880;2023-05-15T05:01:40;3.95;;;2.67;;
56269;SDS011;42176;43.240;27.880;2023-05-15T05:04:05;4.60;;;3.50;;
56269;SDS011;42176;43.240;27.880;2023-05-15T05:06:30;4.50;;;3.47;;
56269;SDS011;42176;43.240;27.880;2023-05-15T05:08:56;5.45;;;3.05;;
56269;SDS011;42176;43.240;27.880;2023-05-15T05:11:22;9.65;;;3.60;;
56269;SDS011;42176;43.240;27.880;2023-05-15T05:13:47;9.95;;;3.20;;
56269;SDS011;42176;43.240;27.880;2023-05-15T05:16:13;7.45;;;2.60;;
56269;SDS011;42176;43.240;27.880;2023-05-15T05:18:38;5.82;;;3.40;;
56269;SDS011;42176;43.240;27.880;2023-05-15T05:21:04;7.38;;;3.05;;
56269;SDS011;42176;43.240;27.880;2023-05-15T05:23:29;5.63;;;2.80;;
56269;SDS011;42176;43.240;27.880;2023-05-15T05:25:55;6.07;;;3.20;;
56269;SDS011;42176;43.240;27.880;2023-05-15T05:28:21;8.82;;;3.28;;
56269;SDS011;42176;43.240;27.880;2023-05-15T05:30:47;6.07;;;3.05;;
56269;SDS011;42176;43.240;27.880;2023-05-15T05:33:13;2.97;;;2.65;;
56269;SDS011;42176;43.240;27.880;2023-05-15T05:35:38;3.75;;;2.65;;
56269;SDS011;42176;43.240;27.880;2023-05-15T05:38:04;2.42;;;1.88;;
56269;SDS011;42176;43.240;27.880;2023-05-15T05:40:29;3.40;;;1.95;;
56269;SDS011;42176;43.240;27.880;2023-05-15T05:43:01;2.10;;;1.60;;
56269;SDS011;42176;43.240;27.880;2023-05-15T05:45:27;2.78;;;2.13;;
56269;SDS011;42176;43.240;27.880;2023-05-15T05:47:56;3.70;;;2.10;;
56269;SDS011;42176;43.240;27.880;2023-05-15T05:50:22;2.40;;;2.20;;
56269;SDS011;42176;43.240;27.880;2023-05-15T05:52:47;6.60;;;2.20;;
56269;SDS011;42176;43.240;27.880;2023-05-15T05:55:13;2.53;;;1.83;;
56269;SDS011;42176;43.240;27.880;2023-05-15T05:57:38;1.70;;;1.60;;
56269;SDS011;42176;43.240;27.880;2023-05-15T06:00:04;2.08;;;1.88;;
56269;SDS011;42176;43.240;27.880;2023-05-15T06:02:34;3.58;;;2.22;;
56269;SDS011;42176;43.240;27.880;2023-05-15T06:05:00;2.17;;;1.60;;
56269;SDS011;42176;43.240;27.880;2023-05-15T06:07:26;3.90;;;2.47;;
56269;SDS011;42176;43.240;27.880;2023-05-15T06:09:52;3.20;;;2.28;;
56269;SDS011;42176;43.240;27.880;2023-05-15T06:12:17;4.72;;;2.00;;
56269;SDS011;42176;43.240;27.880;2023-05-15T06:14:43;5.25;;;4.25;;
56269;SDS011;42176;43.240;27.880;2023-05-15T06:17:08;10.00;;;2.40;;
56269;SDS011;42176;43.240;27.880;2023-05-15T06:19:34;3.28;;;2.00;;
56269;SDS011;42176;43.240;27.880;2023-05-15T06:22:00;7.88;;;4.88;;
56269;SDS011;42176;43.240;27.880;2023-05-15T06:24:25;4.72;;;1.90;;
56269;SDS011;42176;43.240;27.880;2023-05-15T06:26:51;4.43;;;2.45;;
56269;SDS011;42176;43.240;27.880;2023-05-15T06:29:16;7.20;;;4.82;;
56269;SDS011;42176;43.240;27.880;2023-05-15T06:31:42;4.05;;;1.77;;
56269;SDS011;42176;43.240;27.880;2023-05-15T06:34:07;3.17;;;2.67;;
56269;SDS011;42176;43.240;27.880;2023-05-15T06:36:32;2.92;;;1.90;;
56269;SDS011;42176;43.240;27.880;2023-05-15T06:38:58;4.03;;;3.22;;
56269;SDS011;42176;43.240;27.880;2023-05-15T06:41:23;1.92;;;1.50;;
56269;SDS011;42176;43.240;27.880;2023-05-15T06:43:49;4.78;;;2.00;;
56269;SDS011;42176;43.240;27.880;2023-05-15T06:46:14;4.28;;;2.10;;
56269;SDS011;42176;43.240;27.880;2023-05-15T06:48:43;2.33;;;1.90;;
56269;SDS011;42176;43.240;27.880;2023-05-15T06:51:08;7.80;;;2.20;;
56269;SDS011;42176;43.240;27.880;2023-05-15T06:53:34;2.47;;;2.05;;
56269;SDS011;42176;43.240;27.880;2023-05-15T06:55:59;3.13;;;1.80;;
56269;SDS011;42176;43.240;27.880;2023-05-15T06:58:25;4.13;;;1.80;;
56269;SDS011;42176;43.240;27.880;2023-05-15T07:00:50;6.60;;;1.85;;
56269;SDS011;42176;43.240;27.880;2023-05-15T07:03:16;4.82;;;2.17;;
56269;SDS011;42176;43.240;27.880;2023-05-15T07:05:41;4.82;;;2.20;;
56269;SDS011;42176;43.240;27.880;2023-05-15T07:08:07;3.72;;;2.63;;
56269;SDS011;42176;43.240;27.880;2023-05-15T07:10:32;2.90;;;1.80;;
56269;SDS011;42176;43.240;27.880;2023-05-15T07:13:16;3.80;;;1.42;;
56269;SDS011;42176;43.240;27.880;2023-05-15T07:15:42;4.70;;;2.60;;
56269;SDS011;42176;43.240;27.880;2023-05-15T07:18:07;2.40;;;2.15;;
56269;SDS011;42176;43.240;27.880;2023-05-15T07:20:33;3.72;;;2.17;;
56269;SDS011;42176;43.240;27.880;2023-05-15T07:22:58;2.80;;;2.25;;
56269;SDS011;42176;43.240;27.880;2023-05-15T07:25:24;5.60;;;1.60;;
56269;SDS011;42176;43.240;27.880;2023-05-15T07:27:49;3.40;;;2.13;;
56269;SDS011;42176;43.240;27.880;2023-05-15T07:30:15;1.63;;;1.50;;
56269;SDS011;42176;43.240;27.880;2023-05-15T07:32:40;1.63;;;1.52;;
56269;SDS011;42176;43.240;27.880;2023-05-15T07:35:06;5.28;;;2.05;;
56269;SDS011;42176;43.240;27.880;2023-05-15T07:37:32;2.78;;;1.85;;
56269;SDS011;42176;43.240;27.880;2023-05-15T07:39:57;5.72;;;2.35;;
56269;SDS011;42176;43.240;27.880;2023-05-15T07:42:23;2.13;;;1.92;;
56269;SDS011;42176;43.240;27.880;2023-05-15T07:44:49;4.38;;;2.05;;
56269;SDS011;42176;43.240;27.880;2023-05-15T07:47:15;6.90;;;2.38;;
56269;SDS011;42176;43.240;27.880;2023-05-15T07:49:41;2.47;;;1.90;;
56269;SDS011;42176;43.240;27.880;2023-05-15T07:52:06;5.10;;;2.10;;
56269;SDS011;42176;43.240;27.880;2023-05-15T07:54:32;3.08;;;2.00;;
56269;SDS011;42176;43.240;27.880;2023-05-15T07:56:57;3.63;;;2.60;;
56269;SDS011;42176;43.240;27.880;2023-05-15T07:59:23;1.70;;;1.60;;
56269;SDS011;42176;43.240;27.880;2023-05-15T08:01:48;1.73;;;1.63;;
56269;SDS011;42176;43.240;27.880;2023-05-15T08:04:14;5.43;;;2.08;;
56269;SDS011;42176;43.240;27.880;2023-05-15T08:06:39;2.40;;;1.65;;
56269;SDS011;42176;43.240;27.880;2023-05-15T08:09:06;3.97;;;2.05;;
56269;SDS011;42176;43.240;27.880;2023-05-15T08:11:33;4.47;;;2.20;;
56269;SDS011;42176;43.240;27.880;2023-05-15T08:13:59;5.95;;;2.15;;
56269;SDS011;42176;43.240;27.880;2023-05-15T08:16:24;2.65;;;1.92;;
56269;SDS011;42176;43.240;27.880;2023-05-15T08:18:49;5.10;;;2.08;;
56269;SDS011;42176;43.240;27.880;2023-05-15T08:21:17;5.18;;;1.98;;
56269;SDS011;42176;43.240;27.880;2023-05-15T08:23:43;2.97;;;1.77;;
56269;SDS011;42176;43.240;27.880;2023-05-15T08:26:09;9.18;;;2.33;;
56269;SDS011;42176;43.240;27.880;2023-05-15T08:28:34;4.03;;;1.80;;
56269;SDS011;42176;43.240;27.880;2023-05-15T08:31:00;1.73;;;1.63;;
56269;SDS011;42176;43.240;27.880;2023-05-15T08:33:25;7.35;;;2.30;;
56269;SDS011;42176;43.240;27.880;2023-05-15T08:35:50;1.70;;;1.60;;
56269;SDS011;42176;43.240;27.880;2023-05-15T08:38:16;3.30;;;2.40;;
56269;SDS011;42176;43.240;27.880;2023-05-15T08:40:44;7.05;;;2.75;;
56269;SDS011;42176;43.240;27.880;2023-05-15T08:43:11;3.47;;;1.60;;
56269;SDS011;42176;43.240;27.880;2023-05-15T08:45:39;2.50;;;2.30;;
56269;SDS011;42176;43.240;27.880;2023-05-15T08:48:27;3.45;;;2.15;;
56269;SDS011;42176;43.240;27.880;2023-05-15T08:50:53;4.85;;;2.20;;
56269;SDS011;42176;43.240;27.880;2023-05-15T08:53:22;4.45;;;2.00;;
56269;SDS011;42176;43.240;27.880;2023-05-15T08:55:47;7.00;;;2.00;;
56269;SDS011;42176;43.240;27.880;2023-05-15T08:58:14;2.08;;;1.90;;
56269;SDS011;42176;43.240;27.880;2023-05-15T09:00:41;1.70;;;1.40;;
56269;SDS011;42176;43.240;27.880;2023-05-15T09:03:12;3.47;;;1.90;;
56269;SDS011;42176;43.240;27.880;2023-05-15T09:05:38;8.65;;;1.77;;
56269;SDS011;42176;43.240;27.880;2023-05-15T09:08:04;1.88;;;1.67;;
56269;SDS011;42176;43.240;27.880;2023-05-15T09:10:32;2.72;;;1.90;;
56269;SDS011;42176;43.240;27.880;2023-05-15T09:12:58;6.28;;;1.63;;
56269;SDS011;42176;43.240;27.880;2023-05-15T09:15:26;2.50;;;1.48;;
56269;SDS011;42176;43.240;27.880;2023-05-15T09:17:52;2.47;;;1.80;;
56269;SDS011;42176;43.240;27.880;2023-05-15T09:20:25;1.45;;;1.35;;
56269;SDS011;42176;43.240;27.880;2023-05-15T09:22:52;5.22;;;1.52;;
56269;SDS011;42176;43.240;27.880;2023-05-15T09:25:37;5.30;;;2.00;;
56269;SDS011;42176;43.240;27.880;2023-05-15T09:28:05;5.13;;;2.03;;
56269;SDS011;42176;43.240;27.880;2023-05-15T09:30:31;4.00;;;2.10;;
56269;SDS011;42176;43.240;27.880;2023-05-15T09:32:59;5.80;;;2.22;;
56269;SDS011;42176;43.240;27.880;2023-05-15T09:35:45;2.30;;;2.17;;
56269;SDS011;42176;43.240;27.880;2023-05-15T09:38:11;2.40;;;1.65;;
56269;SDS011;42176;43.240;27.880;2023-05-15T09:40:37;2.83;;;1.67;;
56269;SDS011;42176;43.240;27.880;2023-05-15T09:43:04;5.18;;;2.33;;
56269;SDS011;42176;43.240;27.880;2023-05-15T09:45:29;4.35;;;1.92;;
56269;SDS011;42176;43.240;27.880;2023-05-15T09:47:55;1.60;;;1.50;;
56269;SDS011;42176;43.240;27.880;2023-05-15T09:50:25;3.08;;;2.40;;
56269;SDS011;42176;43.240;27.880;2023-05-15T09:52:57;1.67;;;1.42;;
56269;SDS011;42176;43.240;27.880;2023-05-15T09:55:24;4.93;;;2.00;;
56269;SDS011;42176;43.240;27.880;2023-05-15T09:58:08;2.00;;;1.80;;
56269;SDS011;42176;43.240;27.880;2023-05-15T10:00:38;1.70;;;1.60;;
56269;SDS011;42176;43.240;27.880;2023-05-15T10:03:05;2.00;;;1.52;;
56269;SDS011;42176;43.240;27.880;2023-05-15T10:05:31;3.55;;;1.45;;
56269;SDS011;42176;43.240;27.880;2023-05-15T10:07:57;2.70;;;1.40;;
56269;SDS011;42176;43.240;27.880;2023-05-15T10:10:24;2.45;;;1.50;;
56269;SDS011;42176;43.240;27.880;2023-05-15T10:12:51;2.45;;;1.25;;
56269;SDS011;42176;43.240;27.880;2023-05-15T10:15:19;3.58;;;1.73;;
56269;SDS011;42176;43.240;27.880;2023-05-15T10:17:46;3.78;;;1.75;;
56269;SDS011;42176;43.240;27.880;2023-05-15T10:20:15;3.47;;;1.63;;
56269;SDS011;42176;43.240;27.880;2023-05-15T10:22:42;4.90;;;1.67;;
56269;SDS011;42176;43.240;27.880;2023-05-15T10:25:22;2.30;;;1.75;;
56269;SDS011;42176;43.240;27.880;2023-05-15T10:30:38;1.92;;;1.20;;
56269;SDS011;42176;43.240;27.880;2023-05-15T10:33:04;1.40;;;1.27;;
56269;SDS011;42176;43.240;27.880;2023-05-15T10:35:31;1.92;;;1.73;;
56269;SDS011;42176;43.240;27.880;2023-05-15T10:37:57;9.75;;;1.75;;
56269;SDS011;42176;43.240;27.880;2023-05-15T10:40:24;3.30;;;1.88;;
56269;SDS011;42176;43.240;27.880;2023-05-15T10:42:52;1.50;;;1.33;;
56269;SDS011;42176;43.240;27.880;2023-05-15T10:45:19;1.98;;;1.52;;
56269;SDS011;42176;43.240;27.880;2023-05-15T10:47:45;4.35;;;1.67;;
56269;SDS011;42176;43.240;27.880;2023-05-15T10:50:11;4.03;;;1.58;;
56269;SDS011;42176;43.240;27.880;2023-05-15T10:52:37;1.52;;;1.42;;
56269;SDS011;42176;43.240;27.880;2023-05-15T10:55:07;4.07;;;1.73;;
56269;SDS011;42176;43.240;27.880;2023-05-15T10:57:34;2.15;;;1.42;;
56269;SDS011;42176;43.240;27.880;2023-05-15T11:00:00;5.07;;;1.83;;
56269;SDS011;42176;43.240;27.880;2023-05-15T11:02:27;1.70;;;1.55;;
56269;SDS011;42176;43.240;27.880;2023-05-15T11:07:21;5.22;;;1.60;;
56269;SDS011;42176;43.240;27.880;2023-05-15T11:09:48;2.53;;;1.80;;
56269;SDS011;42176;43.240;27.880;2023-05-15T11:12:14;2.88;;;1.67;;
56269;SDS011;42176;43.240;27.880;2023-05-15T11:15:16;2.50;;;1.40;;
56269;SDS011;42176;43.240;27.880;2023-05-15T11:18:00;3.00;;;1.75;;
56269;SDS011;42176;43.240;27.880;2023-05-15T11:20:31;3.03;;;1.75;;
56269;SDS011;42176;43.240;27.880;2023-05-15T11:23:19;2.72;;;1.80;;
56269;SDS011;42176;43.240;27.880;2023-05-15T11:25:51;6.20;;;2.40;;
56269;SDS011;42176;43.240;27.880;2023-05-15T11:28:22;4.07;;;2.00;;
56269;SDS011;42176;43.240;27.880;2023-05-15T11:30:52;9.23;;;2.10;;
56269;SDS011;42176;43.240;27.880;2023-05-15T11:33:23;4.20;;;1.50;;
56269;SDS011;42176;43.240;27.880;2023-05-15T11:35:55;8.27;;;2.00;;
56269;SDS011;42176;43.240;27.880;2023-05-15T11:38:23;1.83;;;1.40;;
56269;SDS011;42176;43.240;27.880;2023-05-15T11:48:20;2.75;;;2.08;;
56269;SDS011;42176;43.240;27.880;2023-05-15T11:50:46;2.28;;;2.05;;
56269;SDS011;42176;43.240;27.880;2023-05-15T11:53:11;5.90;;;1.92;;
56269;SDS011;42176;43.240;27.880;2023-05-15T11:55:38;4.10;;;1.77;;
56269;SDS011;42176;43.240;27.880;2023-05-15T11:58:13;5.22;;;1.55;;
56269;SDS011;42176;43.240;27.880;2023-05-15T12:00:43;5.15;;;1.83;;
56269;SDS011;42176;43.240;27.880;2023-05-15T12:03:14;5.07;;;1.73;;
56269;SDS011;42176;43.240;27.880;2023-05-15T12:05:49;6.70;;;2.30;;
56269;SDS011;42176;43.240;27.880;2023-05-15T12:08:15;3.67;;;2.05;;
56269;SDS011;42176;43.240;27.880;2023-05-15T12:10:41;2.58;;;1.95;;
56269;SDS011;42176;43.240;27.880;2023-05-15T12:13:13;3.42;;;1.95;;
56269;SDS011;42176;43.240;27.880;2023-05-15T12:15:41;4.40;;;2.20;;
56269;SDS011;42176;43.240;27.880;2023-05-15T12:18:08;5.75;;;2.20;;
56269;SDS011;42176;43.240;27.880;2023-05-15T12:20:34;5.30;;;2.10;;
56269;SDS011;42176;43.240;27.880;2023-05-15T12:23:02;2.97;;;2.67;;
56269;SDS011;42176;43.240;27.880;2023-05-15T12:25:28;7.10;;;2.30;;
56269;SDS011;42176;43.240;27.880;2023-05-15T12:27:54;5.13;;;2.28;;
56269;SDS011;42176;43.240;27.880;2023-05-15T12:30:20;3.05;;;2.40;;
56269;SDS011;42176;43.240;27.880;2023-05-15T12:32:46;3.30;;;2.42;;
56269;SDS011;42176;43.240;27.880;2023-05-15T12:35:12;7.22;;;3.00;;
56269;SDS011;42176;43.240;27.880;2023-05-15T12:37:38;2.70;;;2.35;;
56269;SDS011;42176;43.240;27.880;2023-05-15T12:40:04;4.15;;;2.53;;
56269;SDS011;42176;43.240;27.880;2023-05-15T12:42:37;7.22;;;2.67;;
56269;SDS011;42176;43.240;27.880;2023-05-15T12:45:10;6.32;;;3.03;;
56269;SDS011;42176;43.240;27.880;2023-05-15T12:47:36;4.15;;;2.85;;
56269;SDS011;42176;43.240;27.880;2023-05-15T12:50:05;3.20;;;2.38;;
56269;SDS011;42176;43.240;27.880;2023-05-15T12:52:36;2.83;;;2.60;;
56269;SDS011;42176;43.240;27.880;2023-05-15T12:55:02;3.58;;;2.13;;
56269;SDS011;42176;43.240;27.880;2023-05-15T12:57:28;2.67;;;2.45;;
56269;SDS011;42176;43.240;27.880;2023-05-15T12:59:53;3.47;;;2.22;;
56269;SDS011;42176;43.240;27.880;2023-05-15T13:02:19;4.25;;;2.50;;
56269;SDS011;42176;43.240;27.880;2023-05-15T13:04:47;7.20;;;2.92;;
56269;SDS011;42176;43.240;27.880;2023-05-15T13:07:13;2.63;;;2.42;;
56269;SDS011;42176;43.240;27.880;2023-05-15T13:09:41;5.03;;;2.90;;
56269;SDS011;42176;43.240;27.880;2023-05-15T13:12:07;2.38;;;2.20;;
56269;SDS011;42176;43.240;27.880;2023-05-15T13:14:33;5.50;;;2.35;;
56269;SDS011;42176;43.240;27.880;2023-05-15T13:19:45;5.63;;;2.70;;
56269;SDS011;42176;43.240;27.880;2023-05-15T13:22:11;6.80;;;2.40;;
56269;SDS011;42176;43.240;27.880;2023-05-15T13:24:36;6.47;;;2.80;;
56269;SDS011;42176;43.240;27.880;2023-05-15T13:27:02;4.47;;;2.10;;
56269;SDS011;42176;43.240;27.880;2023-05-15T13:29:28;4.70;;;2.50;;
56269;SDS011;42176;43.240;27.880;2023-05-15T13:31:53;4.10;;;2.42;;
56269;SDS011;42176;43.240;27.880;2023-05-15T13:34:18;4.85;;;2.05;;
56269;SDS011;42176;43.240;27.880;2023-05-15T13:36:45;3.42;;;1.90;;
56269;SDS011;42176;43.240;27.880;2023-05-15T13:39:10;3.85;;;2.30;;
56269;SDS011;42176;43.240;27.880;2023-05-15T13:41:35;3.55;;;2.60;;
56269;SDS011;42176;43.240;27.880;2023-05-15T13:44:01;4.90;;;2.22;;
56269;SDS011;42176;43.240;27.880;2023-05-15T13:46:27;11.27;;;3.60;;
56269;SDS011;42176;43.240;27.880;2023-05-15T13:48:52;4.10;;;2.60;;
56269;SDS011;42176;43.240;27.880;2023-05-15T13:51:18;2.63;;;1.83;;
56269;SDS011;42176;43.240;27.880;2023-05-15T13:53:43;10.75;;;2.17;;
56269;SDS011;42176;43.240;27.880;2023-05-15T13:56:08;3.90;;;2.13;;
56269;SDS011;42176;43.240;27.880;2023-05-15T13:58:34;2.40;;;2.20;;
56269;SDS011;42176;43.240;27.880;2023-05-15T14:01:01;4.90;;;2.38;;
56269;SDS011;42176;43.240;27.880;2023-05-15T14:03:30;4.85;;;2.20;;
56269;SDS011;42176;43.240;27.880;2023-05-15T14:05:55;6.15;;;2.30;;
56269;SDS011;42176;43.240;27.880;2023-05-15T14:08:21;5.32;;;1.77;;
56269;SDS011;42176;43.240;27.880;2023-05-15T14:10:46;4.72;;;2.60;;
56269;SDS011;42176;43.240;27.880;2023-05-15T14:13:12;5.22;;;2.63;;
56269;SDS011;42176;43.240;27.880;2023-05-15T14:15:37;3.20;;;1.75;;
56269;SDS011;42176;43.240;27.880;2023-05-15T14:18:02;4.20;;;2.20;;
56269;SDS011;42176;43.240;27.880;2023-05-15T14:20:28;2.97;;;1.85;;
56269;SDS011;42176;43.240;27.880;2023-05-15T14:22:53;8.60;;;2.38;;
56269;SDS011;42176;43.240;27.880;2023-05-15T14:25:20;3.10;;;2.13;;
56269;SDS011;42176;43.240;27.880;2023-05-15T14:27:45;4.38;;;2.40;;
56269;SDS011;42176;43.240;27.880;2023-05-15T14:30:11;4.13;;;2.58;;
56269;SDS011;42176;43.240;27.880;2023-05-15T14:32:37;2.95;;;2.00;;
56269;SDS011;42176;43.240;27.880;2023-05-15T14:35:03;4.70;;;2.67;;
56269;SDS011;42176;43.240;27.880;2023-05-15T14:37:29;4.22;;;2.92;;
56269;SDS011;42176;43.240;27.880;2023-05-15T14:39:54;4.35;;;2.15;;
56269;SDS011;42176;43.240;27.880;2023-05-15T14:42:20;12.45;;;2.22;;
56269;SDS011;42176;43.240;27.880;2023-05-15T14:44:45;4.80;;;2.30;;
56269;SDS011;42176;43.240;27.880;2023-05-15T14:47:11;5.72;;;2.72;;
56269;SDS011;42176;43.240;27.880;2023-05-15T14:49:37;3.08;;;2.15;;
56269;SDS011;42176;43.240;27.880;2023-05-15T14:52:04;5.45;;;2.60;;
56269;SDS011;42176;43.240;27.880;2023-05-15T14:54:31;5.32;;;2.45;;
56269;SDS011;42176;43.240;27.880;2023-05-15T14:56:57;3.72;;;2.65;;
56269;SDS011;42176;43.240;27.880;2023-05-15T14:59:26;2.78;;;2.55;;
56269;SDS011;42176;43.240;27.880;2023-05-15T15:01:52;4.57;;;2.53;;
56269;SDS011;42176;43.240;27.880;2023-05-15T15:04:17;7.07;;;2.90;;
56269;SDS011;42176;43.240;27.880;2023-05-15T15:06:43;4.45;;;2.63;;
56269;SDS011;42176;43.240;27.880;2023-05-15T15:09:09;2.22;;;2.03;;
56269;SDS011;42176;43.240;27.880;2023-05-15T15:11:35;4.65;;;2.63;;
56269;SDS011;42176;43.240;27.880;2023-05-15T15:14:00;5.07;;;3.22;;